sensor_id;sensor_type;location;lat;lon;timestamp;P1;durP1;ratioP1;P2;durP2;ratioP2
26277;SDS011;14000;52.056;8.510;2022-09-09T00:04:34;7.10;;;1.50;;
26277;SDS011;14000;52.056;8.510;2022-09-09T00:09:46;7.50;;;1.40;;
26277;SDS011;14000;52.056;8.510;2022-09-09T00:18:23;9.53;;;1.83;;
26277;SDS011;14000;52.056;8.510;2022-09-09T00:23:25;6.87;;;1.40;;
26277;SDS011;14000;52.056;8.510;2022-09-09T00:28:26;9.00;;;1.30;;
26277;SDS011;14000;52.056;8.510;2022-09-09T00:30:55;7.97;;;1.40;;
26277;SDS011;14000;52.056;8.510;2022-09-09T00:33:26;8.70;;;1.60;;
26277;SDS011;14000;52.056;8.510;2022-09-09T00:35:56;8.30;;;1.40;;
26277;SDS011;14000;52.056;8.510;2022-09-09T00:38:36;9.27;;;1.53;;
26277;SDS011;14000;52.056;8.510;2022-09-09T00:41:22;8.20;;;1.40;;
26277;SDS011;14000;52.056;8.510;2022-09-09T00:43:58;8.50;;;1.97;;
26277;SDS011;14000;52.056;8.510;2022-09-09T00:54:52;8.73;;;1.50;;
26277;SDS011;14000;52.056;8.510;2022-09-09T00:57:31;8.50;;;1.60;;
26277;SDS011;14000;52.056;8.510;2022-09-09T01:05:24;8.37;;;1.70;;
26277;SDS011;14000;52.056;8.510;2022-09-09T01:08:00;10.53;;;1.63;;
26277;SDS011;14000;52.056;8.510;2022-09-09T01:13:22;6.93;;;2.00;;
26277;SDS011;14000;52.056;8.510;2022-09-09T01:15:55;8.90;;;1.80;;
26277;SDS011;14000;52.056;8.510;2022-09-09T01:18:26;8.10;;;1.73;;
26277;SDS011;14000;52.056;8.510;2022-09-09T01:24:31;8.67;;;1.60;;
26277;SDS011;14000;52.056;8.510;2022-09-09T01:27:09;7.83;;;1.63;;
26277;SDS011;14000;52.056;8.510;2022-09-09T01:29:36;9.33;;;1.70;;
26277;SDS011;14000;52.056;8.510;2022-09-09T01:32:37;10.27;;;1.87;;
26277;SDS011;14000;52.056;8.510;2022-09-09T01:35:03;8.47;;;1.70;;
26277;SDS011;14000;52.056;8.510;2022-09-09T01:37:30;9.03;;;1.70;;
26277;SDS011;14000;52.056;8.510;2022-09-09T01:39:56;6.47;;;1.60;;
26277;SDS011;14000;52.056;8.510;2022-09-09T01:42:21;8.07;;;1.67;;
26277;SDS011;14000;52.056;8.510;2022-09-09T01:44:47;7.53;;;1.60;;
26277;SDS011;14000;52.056;8.510;2022-09-09T01:47:13;8.10;;;1.47;;
26277;SDS011;14000;52.056;8.510;2022-09-09T01:49:39;5.10;;;1.30;;
26277;SDS011;14000;52.056;8.510;2022-09-09T01:52:05;6.83;;;1.30;;
26277;SDS011;14000;52.056;8.510;2022-09-09T01:54:33;6.83;;;1.40;;
26277;SDS011;14000;52.056;8.510;2022-09-09T02:02:39;6.57;;;1.33;;
26277;SDS011;14000;52.056;8.510;2022-09-09T02:05:27;10.70;;;1.70;;
26277;SDS011;14000;52.056;8.510;2022-09-09T02:10:43;6.70;;;1.50;;
26277;SDS011;14000;52.056;8.510;2022-09-09T02:13:14;5.40;;;1.37;;
26277;SDS011;14000;52.056;8.510;2022-09-09T02:15:43;6.20;;;1.47;;
26277;SDS011;14000;52.056;8.510;2022-09-09T02:18:19;6.13;;;1.20;;
26277;SDS011;14000;52.056;8.510;2022-09-09T02:21:14;5.90;;;1.40;;
26277;SDS011;14000;52.056;8.510;2022-09-09T02:23:42;6.27;;;1.40;;
26277;SDS011;14000;52.056;8.510;2022-09-09T02:26:12;8.93;;;1.53;;
26277;SDS011;14000;52.056;8.510;2022-09-09T02:28:44;6.70;;;1.40;;
26277;SDS011;14000;52.056;8.510;2022-09-09T02:31:13;6.03;;;1.50;;
26277;SDS011;14000;52.056;8.510;2022-09-09T02:33:43;3.83;;;1.10;;
26277;SDS011;14000;52.056;8.510;2022-09-09T02:36:16;7.20;;;1.57;;
26277;SDS011;14000;52.056;8.510;2022-09-09T02:38:44;4.93;;;1.20;;
26277;SDS011;14000;52.056;8.510;2022-09-09T02:41:16;7.50;;;1.90;;
26277;SDS011;14000;52.056;8.510;2022-09-09T02:43:44;7.53;;;1.40;;
26277;SDS011;14000;52.056;8.510;2022-09-09T02:56:34;6.10;;;1.63;;
26277;SDS011;14000;52.056;8.510;2022-09-09T02:59:04;6.80;;;1.63;;
26277;SDS011;14000;52.056;8.510;2022-09-09T03:01:30;8.93;;;1.80;;
26277;SDS011;14000;52.056;8.510;2022-09-09T03:03:56;8.07;;;1.60;;
26277;SDS011;14000;52.056;8.510;2022-09-09T03:06:22;7.43;;;1.80;;
26277;SDS011;14000;52.056;8.510;2022-09-09T03:08:48;8.13;;;2.00;;
26277;SDS011;14000;52.056;8.510;2022-09-09T03:11:14;7.07;;;2.00;;
26277;SDS011;14000;52.056;8.510;2022-09-09T03:13:41;8.90;;;2.20;;
26277;SDS011;14000;52.056;8.510;2022-09-09T03:16:06;8.63;;;2.70;;
26277;SDS011;14000;52.056;8.510;2022-09-09T03:18:32;11.53;;;2.70;;
26277;SDS011;14000;52.056;8.510;2022-09-09T03:20:59;8.83;;;2.37;;
26277;SDS011;14000;52.056;8.510;2022-09-09T03:23:25;9.07;;;2.90;;
26277;SDS011;14000;52.056;8.510;2022-09-09T03:25:51;11.73;;;2.77;;
26277;SDS011;14000;52.056;8.510;2022-09-09T03:28:18;9.47;;;3.00;;
26277;SDS011;14000;52.056;8.510;2022-09-09T03:30:44;10.00;;;2.60;;
26277;SDS011;14000;52.056;8.510;2022-09-09T03:33:09;9.67;;;3.00;;
26277;SDS011;14000;52.056;8.510;2022-09-09T03:35:35;10.30;;;2.80;;
26277;SDS011;14000;52.056;8.510;2022-09-09T03:38:01;9.60;;;2.90;;
26277;SDS011;14000;52.056;8.510;2022-09-09T03:40:26;9.67;;;2.80;;
26277;SDS011;14000;52.056;8.510;2022-09-09T03:42:52;9.17;;;2.43;;
26277;SDS011;14000;52.056;8.510;2022-09-09T03:45:18;11.00;;;2.83;;
26277;SDS011;14000;52.056;8.510;2022-09-09T03:47:44;10.93;;;2.90;;
26277;SDS011;14000;52.056;8.510;2022-09-09T03:50:09;11.30;;;2.93;;
26277;SDS011;14000;52.056;8.510;2022-09-09T03:52:36;9.07;;;2.80;;
26277;SDS011;14000;52.056;8.510;2022-09-09T03:55:03;8.33;;;2.50;;
26277;SDS011;14000;52.056;8.510;2022-09-09T03:57:30;9.23;;;2.60;;
26277;SDS011;14000;52.056;8.510;2022-09-09T03:59:56;10.43;;;2.90;;
26277;SDS011;14000;52.056;8.510;2022-09-09T04:02:23;11.03;;;3.00;;
26277;SDS011;14000;52.056;8.510;2022-09-09T04:04:48;12.03;;;3.40;;
26277;SDS011;14000;52.056;8.510;2022-09-09T04:07:14;10.17;;;3.10;;
26277;SDS011;14000;52.056;8.510;2022-09-09T04:09:40;10.87;;;3.00;;
26277;SDS011;14000;52.056;8.510;2022-09-09T04:12:06;8.33;;;2.73;;
26277;SDS011;14000;52.056;8.510;2022-09-09T04:14:32;9.47;;;2.80;;
26277;SDS011;14000;52.056;8.510;2022-09-09T04:16:57;8.57;;;2.67;;
26277;SDS011;14000;52.056;8.510;2022-09-09T04:19:24;11.27;;;2.80;;
26277;SDS011;14000;52.056;8.510;2022-09-09T04:21:50;9.90;;;2.77;;
26277;SDS011;14000;52.056;8.510;2022-09-09T04:24:16;10.83;;;2.60;;
26277;SDS011;14000;52.056;8.510;2022-09-09T04:26:42;13.63;;;3.57;;
26277;SDS011;14000;52.056;8.510;2022-09-09T04:29:08;11.03;;;2.67;;
26277;SDS011;14000;52.056;8.510;2022-09-09T04:31:34;11.07;;;2.57;;
26277;SDS011;14000;52.056;8.510;2022-09-09T04:34:00;11.27;;;2.90;;
26277;SDS011;14000;52.056;8.510;2022-09-09T04:36:30;8.13;;;2.60;;
26277;SDS011;14000;52.056;8.510;2022-09-09T04:38:57;10.10;;;2.60;;
26277;SDS011;14000;52.056;8.510;2022-09-09T04:41:22;10.47;;;2.73;;
26277;SDS011;14000;52.056;8.510;2022-09-09T04:43:48;12.97;;;2.93;;
26277;SDS011;14000;52.056;8.510;2022-09-09T04:46:14;13.53;;;3.33;;
26277;SDS011;14000;52.056;8.510;2022-09-09T04:48:42;11.07;;;2.83;;
26277;SDS011;14000;52.056;8.510;2022-09-09T04:51:09;12.13;;;2.90;;
26277;SDS011;14000;52.056;8.510;2022-09-09T04:53:36;8.70;;;2.53;;
26277;SDS011;14000;52.056;8.510;2022-09-09T04:58:39;9.23;;;2.50;;
26277;SDS011;14000;52.056;8.510;2022-09-09T05:01:11;9.70;;;2.70;;
26277;SDS011;14000;52.056;8.510;2022-09-09T05:03:39;12.17;;;2.93;;
26277;SDS011;14000;52.056;8.510;2022-09-09T05:06:05;13.17;;;3.17;;
26277;SDS011;14000;52.056;8.510;2022-09-09T05:08:36;10.10;;;2.90;;
26277;SDS011;14000;52.056;8.510;2022-09-09T05:11:03;10.83;;;2.70;;
26277;SDS011;14000;52.056;8.510;2022-09-09T05:13:37;10.90;;;2.60;;
26277;SDS011;14000;52.056;8.510;2022-09-09T05:16:02;9.30;;;2.53;;
26277;SDS011;14000;52.056;8.510;2022-09-09T05:18:28;10.67;;;2.67;;
26277;SDS011;14000;52.056;8.510;2022-09-09T05:20:58;11.37;;;3.13;;
26277;SDS011;14000;52.056;8.510;2022-09-09T05:23:25;10.03;;;2.90;;
26277;SDS011;14000;52.056;8.510;2022-09-09T05:25:57;9.20;;;2.70;;
26277;SDS011;14000;52.056;8.510;2022-09-09T05:28:26;8.23;;;2.57;;
26277;SDS011;14000;52.056;8.510;2022-09-09T05:30:59;11.50;;;2.73;;
26277;SDS011;14000;52.056;8.510;2022-09-09T05:33:28;11.50;;;2.47;;
26277;SDS011;14000;52.056;8.510;2022-09-09T05:35:55;10.27;;;2.57;;
26277;SDS011;14000;52.056;8.510;2022-09-09T05:38:25;9.73;;;2.43;;
26277;SDS011;14000;52.056;8.510;2022-09-09T05:40:51;9.10;;;2.70;;
26277;SDS011;14000;52.056;8.510;2022-09-09T05:43:18;12.67;;;2.90;;
26277;SDS011;14000;52.056;8.510;2022-09-09T05:45:47;9.93;;;2.97;;
26277;SDS011;14000;52.056;8.510;2022-09-09T05:48:13;12.50;;;2.90;;
26277;SDS011;14000;52.056;8.510;2022-09-09T05:50:41;11.00;;;3.10;;
26277;SDS011;14000;52.056;8.510;2022-09-09T05:53:07;9.17;;;2.63;;
26277;SDS011;14000;52.056;8.510;2022-09-09T05:55:34;11.57;;;3.00;;
26277;SDS011;14000;52.056;8.510;2022-09-09T05:57:59;10.30;;;2.60;;
26277;SDS011;14000;52.056;8.510;2022-09-09T06:00:26;13.27;;;3.03;;
26277;SDS011;14000;52.056;8.510;2022-09-09T06:02:52;11.97;;;2.73;;
26277;SDS011;14000;52.056;8.510;2022-09-09T06:05:18;10.07;;;2.43;;
26277;SDS011;14000;52.056;8.510;2022-09-09T06:07:44;11.30;;;2.70;;
26277;SDS011;14000;52.056;8.510;2022-09-09T06:10:10;9.63;;;2.60;;
26277;SDS011;14000;52.056;8.510;2022-09-09T06:12:38;13.50;;;2.90;;
26277;SDS011;14000;52.056;8.510;2022-09-09T06:15:04;13.83;;;2.70;;
26277;SDS011;14000;52.056;8.510;2022-09-09T06:17:30;11.53;;;2.50;;
26277;SDS011;14000;52.056;8.510;2022-09-09T06:19:56;9.60;;;2.73;;
26277;SDS011;14000;52.056;8.510;2022-09-09T06:22:22;8.77;;;2.80;;
26277;SDS011;14000;52.056;8.510;2022-09-09T06:24:47;12.73;;;3.23;;
26277;SDS011;14000;52.056;8.510;2022-09-09T06:27:13;10.83;;;3.00;;
26277;SDS011;14000;52.056;8.510;2022-09-09T06:29:39;11.90;;;2.63;;
26277;SDS011;14000;52.056;8.510;2022-09-09T06:32:04;10.30;;;3.00;;
26277;SDS011;14000;52.056;8.510;2022-09-09T06:34:30;13.17;;;2.80;;
26277;SDS011;14000;52.056;8.510;2022-09-09T06:36:56;10.07;;;2.70;;
26277;SDS011;14000;52.056;8.510;2022-09-09T06:39:23;11.43;;;2.50;;
26277;SDS011;14000;52.056;8.510;2022-09-09T06:41:48;9.53;;;2.70;;
26277;SDS011;14000;52.056;8.510;2022-09-09T06:44:17;13.60;;;3.00;;
26277;SDS011;14000;52.056;8.510;2022-09-09T06:46:44;11.03;;;2.47;;
26277;SDS011;14000;52.056;8.510;2022-09-09T06:49:11;8.50;;;2.37;;
26277;SDS011;14000;52.056;8.510;2022-09-09T06:51:38;13.17;;;2.70;;
26277;SDS011;14000;52.056;8.510;2022-09-09T06:54:08;11.20;;;2.57;;
26277;SDS011;14000;52.056;8.510;2022-09-09T06:56:36;11.23;;;2.80;;
26277;SDS011;14000;52.056;8.510;2022-09-09T06:59:08;10.80;;;2.57;;
26277;SDS011;14000;52.056;8.510;2022-09-09T07:01:38;11.73;;;2.70;;
26277;SDS011;14000;52.056;8.510;2022-09-09T07:04:06;11.57;;;2.80;;
26277;SDS011;14000;52.056;8.510;2022-09-09T07:06:36;10.47;;;2.47;;
26277;SDS011;14000;52.056;8.510;2022-09-09T07:09:04;9.97;;;2.37;;
26277;SDS011;14000;52.056;8.510;2022-09-09T07:11:32;13.03;;;2.57;;
26277;SDS011;14000;52.056;8.510;2022-09-09T07:14:02;8.97;;;2.30;;
26277;SDS011;14000;52.056;8.510;2022-09-09T07:16:27;11.87;;;2.77;;
26277;SDS011;14000;52.056;8.510;2022-09-09T07:18:54;10.30;;;2.63;;
26277;SDS011;14000;52.056;8.510;2022-09-09T07:21:23;13.03;;;2.97;;
26277;SDS011;14000;52.056;8.510;2022-09-09T07:23:51;11.10;;;2.70;;
26277;SDS011;14000;52.056;8.510;2022-09-09T07:26:18;9.50;;;2.50;;
26277;SDS011;14000;52.056;8.510;2022-09-09T07:28:44;9.57;;;2.43;;
26277;SDS011;14000;52.056;8.510;2022-09-09T07:31:15;10.07;;;2.27;;
26277;SDS011;14000;52.056;8.510;2022-09-09T07:33:43;12.07;;;2.60;;
26277;SDS011;14000;52.056;8.510;2022-09-09T07:36:12;10.37;;;2.63;;
26277;SDS011;14000;52.056;8.510;2022-09-09T07:38:59;14.60;;;4.80;;
26277;SDS011;14000;52.056;8.510;2022-09-09T07:41:28;14.77;;;4.27;;
26277;SDS011;14000;52.056;8.510;2022-09-09T07:43:57;9.37;;;2.27;;
26277;SDS011;14000;52.056;8.510;2022-09-09T07:46:24;10.70;;;2.33;;
26277;SDS011;14000;52.056;8.510;2022-09-09T07:48:52;10.93;;;2.53;;
26277;SDS011;14000;52.056;8.510;2022-09-09T07:51:22;11.73;;;2.43;;
26277;SDS011;14000;52.056;8.510;2022-09-09T07:54:00;12.67;;;2.90;;
26277;SDS011;14000;52.056;8.510;2022-09-09T07:56:28;8.57;;;2.20;;
26277;SDS011;14000;52.056;8.510;2022-09-09T07:58:55;12.33;;;2.20;;
26277;SDS011;14000;52.056;8.510;2022-09-09T08:01:22;13.83;;;2.33;;
26277;SDS011;14000;52.056;8.510;2022-09-09T08:03:54;11.63;;;2.47;;
26277;SDS011;14000;52.056;8.510;2022-09-09T08:06:29;14.70;;;2.23;;
26277;SDS011;14000;52.056;8.510;2022-09-09T08:08:58;11.03;;;2.37;;
26277;SDS011;14000;52.056;8.510;2022-09-09T08:11:24;9.70;;;2.43;;
26277;SDS011;14000;52.056;8.510;2022-09-09T08:13:51;13.50;;;3.80;;
26277;SDS011;14000;52.056;8.510;2022-09-09T08:16:19;10.97;;;2.80;;
26277;SDS011;14000;52.056;8.510;2022-09-09T08:18:47;9.83;;;2.03;;
26277;SDS011;14000;52.056;8.510;2022-09-09T08:21:20;10.10;;;2.10;;
26277;SDS011;14000;52.056;8.510;2022-09-09T08:23:49;10.37;;;2.10;;
26277;SDS011;14000;52.056;8.510;2022-09-09T08:26:21;9.97;;;2.23;;
26277;SDS011;14000;52.056;8.510;2022-09-09T08:28:52;10.60;;;2.00;;
26277;SDS011;14000;52.056;8.510;2022-09-09T08:31:23;9.93;;;2.30;;
26277;SDS011;14000;52.056;8.510;2022-09-09T08:33:53;9.47;;;2.17;;
26277;SDS011;14000;52.056;8.510;2022-09-09T08:36:21;11.20;;;2.03;;
26277;SDS011;14000;52.056;8.510;2022-09-09T08:38:50;10.97;;;2.50;;
26277;SDS011;14000;52.056;8.510;2022-09-09T08:47:11;9.40;;;2.10;;
26277;SDS011;14000;52.056;8.510;2022-09-09T08:52:16;10.93;;;2.13;;
26277;SDS011;14000;52.056;8.510;2022-09-09T08:54:46;13.87;;;2.20;;
26277;SDS011;14000;52.056;8.510;2022-09-09T08:57:18;11.30;;;2.10;;
26277;SDS011;14000;52.056;8.510;2022-09-09T08:59:51;11.30;;;1.83;;
26277;SDS011;14000;52.056;8.510;2022-09-09T09:02:24;11.33;;;2.10;;
26277;SDS011;14000;52.056;8.510;2022-09-09T09:05:15;11.07;;;2.10;;
26277;SDS011;14000;52.056;8.510;2022-09-09T09:13:07;12.90;;;1.87;;
26277;SDS011;14000;52.056;8.510;2022-09-09T09:15:39;12.20;;;1.70;;
26277;SDS011;14000;52.056;8.510;2022-09-09T09:18:10;8.53;;;1.83;;
26277;SDS011;14000;52.056;8.510;2022-09-09T09:20:47;11.03;;;2.13;;
26277;SDS011;14000;52.056;8.510;2022-09-09T09:23:21;8.40;;;1.53;;
26277;SDS011;14000;52.056;8.510;2022-09-09T09:25:49;9.53;;;1.90;;
26277;SDS011;14000;52.056;8.510;2022-09-09T09:28:22;9.77;;;1.97;;
26277;SDS011;14000;52.056;8.510;2022-09-09T09:30:55;16.47;;;3.17;;
26277;SDS011;14000;52.056;8.510;2022-09-09T09:36:09;8.87;;;1.43;;
26277;SDS011;14000;52.056;8.510;2022-09-09T09:38:36;8.00;;;1.50;;
26277;SDS011;14000;52.056;8.510;2022-09-09T09:41:02;11.87;;;1.63;;
26277;SDS011;14000;52.056;8.510;2022-09-09T09:43:32;7.97;;;1.40;;
26277;SDS011;14000;52.056;8.510;2022-09-09T09:46:00;8.90;;;1.63;;
26277;SDS011;14000;52.056;8.510;2022-09-09T09:48:28;7.37;;;1.40;;
26277;SDS011;14000;52.056;8.510;2022-09-09T09:50:54;8.27;;;1.40;;
26277;SDS011;14000;52.056;8.510;2022-09-09T09:53:34;9.33;;;2.20;;
26277;SDS011;14000;52.056;8.510;2022-09-09T09:56:02;14.53;;;2.70;;
26277;SDS011;14000;52.056;8.510;2022-09-09T09:58:32;9.33;;;1.30;;
26277;SDS011;14000;52.056;8.510;2022-09-09T10:01:02;9.67;;;1.40;;
26277;SDS011;14000;52.056;8.510;2022-09-09T10:03:29;9.17;;;1.40;;
26277;SDS011;14000;52.056;8.510;2022-09-09T10:05:56;10.07;;;1.60;;
26277;SDS011;14000;52.056;8.510;2022-09-09T10:08:25;9.50;;;1.50;;
26277;SDS011;14000;52.056;8.510;2022-09-09T10:11:28;8.27;;;1.47;;
26277;SDS011;14000;52.056;8.510;2022-09-09T10:19:32;9.07;;;1.70;;
26277;SDS011;14000;52.056;8.510;2022-09-09T10:22:02;10.77;;;1.53;;
26277;SDS011;14000;52.056;8.510;2022-09-09T10:33:16;7.43;;;1.40;;
26277;SDS011;14000;52.056;8.510;2022-09-09T10:38:39;8.20;;;1.50;;
26277;SDS011;14000;52.056;8.510;2022-09-09T10:41:16;10.07;;;1.80;;
26277;SDS011;14000;52.056;8.510;2022-09-09T10:43:55;9.63;;;1.70;;
26277;SDS011;14000;52.056;8.510;2022-09-09T10:52:17;8.67;;;1.50;;
26277;SDS011;14000;52.056;8.510;2022-09-09T10:57:51;8.53;;;1.87;;
26277;SDS011;14000;52.056;8.510;2022-09-09T11:00:26;9.90;;;1.53;;
26277;SDS011;14000;52.056;8.510;2022-09-09T11:03:03;10.67;;;1.90;;
26277;SDS011;14000;52.056;8.510;2022-09-09T11:05:31;9.67;;;1.53;;
26277;SDS011;14000;52.056;8.510;2022-09-09T11:08:18;10.07;;;1.53;;
26277;SDS011;14000;52.056;8.510;2022-09-09T11:13:49;8.80;;;1.40;;
26277;SDS011;14000;52.056;8.510;2022-09-09T11:16:36;10.43;;;1.50;;
26277;SDS011;14000;52.056;8.510;2022-09-09T11:19:26;8.27;;;1.50;;
26277;SDS011;14000;52.056;8.510;2022-09-09T11:21:53;7.07;;;1.23;;
26277;SDS011;14000;52.056;8.510;2022-09-09T11:27:14;9.53;;;1.50;;
26277;SDS011;14000;52.056;8.510;2022-09-09T11:35:33;8.50;;;1.87;;
26277;SDS011;14000;52.056;8.510;2022-09-09T11:46:05;9.67;;;1.67;;
26277;SDS011;14000;52.056;8.510;2022-09-09T11:48:39;8.43;;;1.30;;
26277;SDS011;14000;52.056;8.510;2022-09-09T11:51:11;8.13;;;1.27;;
26277;SDS011;14000;52.056;8.510;2022-09-09T11:53:51;10.17;;;1.80;;
26277;SDS011;14000;52.056;8.510;2022-09-09T11:56:34;7.93;;;1.37;;
26277;SDS011;14000;52.056;8.510;2022-09-09T11:59:24;9.77;;;1.57;;
26277;SDS011;14000;52.056;8.510;2022-09-09T12:02:02;10.00;;;1.63;;
26277;SDS011;14000;52.056;8.510;2022-09-09T12:04:38;10.67;;;2.80;;
26277;SDS011;14000;52.056;8.510;2022-09-09T12:14:55;9.00;;;1.47;;
26277;SDS011;14000;52.056;8.510;2022-09-09T12:17:23;7.77;;;1.33;;
26277;SDS011;14000;52.056;8.510;2022-09-09T12:20:00;7.87;;;1.20;;
26277;SDS011;14000;52.056;8.510;2022-09-09T12:31:14;6.20;;;1.10;;
26277;SDS011;14000;52.056;8.510;2022-09-09T12:33:45;6.37;;;1.20;;
26277;SDS011;14000;52.056;8.510;2022-09-09T12:36:13;10.53;;;1.30;;
26277;SDS011;14000;52.056;8.510;2022-09-09T12:38:43;6.73;;;1.30;;
26277;SDS011;14000;52.056;8.510;2022-09-09T12:41:22;7.90;;;1.23;;
26277;SDS011;14000;52.056;8.510;2022-09-09T12:43:50;8.47;;;1.40;;
26277;SDS011;14000;52.056;8.510;2022-09-09T12:49:17;7.93;;;1.60;;
26277;SDS011;14000;52.056;8.510;2022-09-09T12:51:53;7.60;;;1.57;;
26277;SDS011;14000;52.056;8.510;2022-09-09T12:54:19;6.47;;;1.07;;
26277;SDS011;14000;52.056;8.510;2022-09-09T12:56:46;9.37;;;1.43;;
26277;SDS011;14000;52.056;8.510;2022-09-09T12:59:25;8.83;;;1.37;;
26277;SDS011;14000;52.056;8.510;2022-09-09T13:02:01;9.03;;;1.50;;
26277;SDS011;14000;52.056;8.510;2022-09-09T13:04:27;7.17;;;1.23;;
26277;SDS011;14000;52.056;8.510;2022-09-09T13:06:52;8.63;;;1.40;;
26277;SDS011;14000;52.056;8.510;2022-09-09T13:09:18;9.57;;;1.47;;
26277;SDS011;14000;52.056;8.510;2022-09-09T13:11:49;7.83;;;1.50;;
26277;SDS011;14000;52.056;8.510;2022-09-09T13:14:18;9.33;;;1.57;;
26277;SDS011;14000;52.056;8.510;2022-09-09T13:16:55;10.83;;;1.67;;
26277;SDS011;14000;52.056;8.510;2022-09-09T13:19:22;11.37;;;1.77;;
26277;SDS011;14000;52.056;8.510;2022-09-09T13:21:50;7.93;;;1.27;;
26277;SDS011;14000;52.056;8.510;2022-09-09T13:27:00;8.43;;;1.40;;
26277;SDS011;14000;52.056;8.510;2022-09-09T13:29:27;8.00;;;1.50;;
26277;SDS011;14000;52.056;8.510;2022-09-09T13:32:03;8.90;;;1.30;;
26277;SDS011;14000;52.056;8.510;2022-09-09T13:34:50;5.57;;;1.00;;
26277;SDS011;14000;52.056;8.510;2022-09-09T13:37:30;6.07;;;1.33;;
26277;SDS011;14000;52.056;8.510;2022-09-09T13:40:02;8.27;;;1.20;;
26277;SDS011;14000;52.056;8.510;2022-09-09T13:42:31;6.03;;;0.90;;
26277;SDS011;14000;52.056;8.510;2022-09-09T13:45:02;6.00;;;1.20;;
26277;SDS011;14000;52.056;8.510;2022-09-09T13:47:33;8.00;;;0.90;;
26277;SDS011;14000;52.056;8.510;2022-09-09T13:52:45;4.47;;;0.83;;
26277;SDS011;14000;52.056;8.510;2022-09-09T13:55:12;6.63;;;0.90;;
26277;SDS011;14000;52.056;8.510;2022-09-09T13:57:38;7.03;;;1.00;;
26277;SDS011;14000;52.056;8.510;2022-09-09T14:00:04;7.33;;;1.30;;
26277;SDS011;14000;52.056;8.510;2022-09-09T14:02:33;3.87;;;1.00;;
26277;SDS011;14000;52.056;8.510;2022-09-09T14:04:59;9.27;;;3.30;;
26277;SDS011;14000;52.056;8.510;2022-09-09T14:07:24;11.00;;;1.70;;
26277;SDS011;14000;52.056;8.510;2022-09-09T14:09:50;5.50;;;0.80;;
26277;SDS011;14000;52.056;8.510;2022-09-09T14:12:17;6.23;;;1.17;;
26277;SDS011;14000;52.056;8.510;2022-09-09T14:14:43;6.57;;;1.00;;
26277;SDS011;14000;52.056;8.510;2022-09-09T14:17:09;4.57;;;1.00;;
26277;SDS011;14000;52.056;8.510;2022-09-09T14:19:34;4.63;;;0.80;;
26277;SDS011;14000;52.056;8.510;2022-09-09T14:22:01;9.07;;;1.03;;
26277;SDS011;14000;52.056;8.510;2022-09-09T14:24:27;4.33;;;1.00;;
26277;SDS011;14000;52.056;8.510;2022-09-09T14:26:53;6.17;;;1.10;;
26277;SDS011;14000;52.056;8.510;2022-09-09T14:29:19;8.97;;;1.10;;
26277;SDS011;14000;52.056;8.510;2022-09-09T14:31:44;4.73;;;1.00;;
26277;SDS011;14000;52.056;8.510;2022-09-09T14:34:10;8.50;;;1.20;;
26277;SDS011;14000;52.056;8.510;2022-09-09T14:36:36;5.40;;;1.00;;
26277;SDS011;14000;52.056;8.510;2022-09-09T14:39:03;5.87;;;1.00;;
26277;SDS011;14000;52.056;8.510;2022-09-09T14:41:29;7.20;;;1.00;;
26277;SDS011;14000;52.056;8.510;2022-09-09T14:43:55;8.73;;;1.10;;
26277;SDS011;14000;52.056;8.510;2022-09-09T14:46:21;5.77;;;1.03;;
26277;SDS011;14000;52.056;8.510;2022-09-09T14:48:48;5.53;;;0.80;;
26277;SDS011;14000;52.056;8.510;2022-09-09T14:53:41;6.27;;;1.00;;
26277;SDS011;14000;52.056;8.510;2022-09-09T14:56:09;6.00;;;1.10;;
26277;SDS011;14000;52.056;8.510;2022-09-09T14:58:35;6.50;;;1.00;;
26277;SDS011;14000;52.056;8.510;2022-09-09T15:01:03;4.63;;;0.80;;
26277;SDS011;14000;52.056;8.510;2022-09-09T15:03:30;6.63;;;1.10;;
26277;SDS011;14000;52.056;8.510;2022-09-09T15:05:55;7.77;;;1.27;;
26277;SDS011;14000;52.056;8.510;2022-09-09T15:08:23;6.40;;;1.10;;
26277;SDS011;14000;52.056;8.510;2022-09-09T15:10:49;13.17;;;3.73;;
26277;SDS011;14000;52.056;8.510;2022-09-09T15:13:15;9.73;;;2.87;;
26277;SDS011;14000;52.056;8.510;2022-09-09T15:15:42;9.73;;;2.23;;
26277;SDS011;14000;52.056;8.510;2022-09-09T15:18:08;7.53;;;1.10;;
26277;SDS011;14000;52.056;8.510;2022-09-09T15:20:34;8.83;;;1.30;;
26277;SDS011;14000;52.056;8.510;2022-09-09T15:23:00;5.80;;;1.27;;
26277;SDS011;14000;52.056;8.510;2022-09-09T15:25:26;6.47;;;1.27;;
26277;SDS011;14000;52.056;8.510;2022-09-09T15:27:51;8.20;;;1.33;;
26277;SDS011;14000;52.056;8.510;2022-09-09T15:30:17;7.33;;;1.20;;
26277;SDS011;14000;52.056;8.510;2022-09-09T15:32:42;7.60;;;1.23;;
26277;SDS011;14000;52.056;8.510;2022-09-09T15:35:08;5.97;;;1.10;;
26277;SDS011;14000;52.056;8.510;2022-09-09T15:37:34;7.20;;;1.00;;
26277;SDS011;14000;52.056;8.510;2022-09-09T15:39:59;8.40;;;1.20;;
26277;SDS011;14000;52.056;8.510;2022-09-09T15:42:25;7.30;;;1.10;;
26277;SDS011;14000;52.056;8.510;2022-09-09T15:44:51;6.40;;;1.07;;
26277;SDS011;14000;52.056;8.510;2022-09-09T15:47:17;6.80;;;1.10;;
26277;SDS011;14000;52.056;8.510;2022-09-09T15:49:42;7.70;;;1.10;;
26277;SDS011;14000;52.056;8.510;2022-09-09T15:52:09;8.77;;;1.50;;
26277;SDS011;14000;52.056;8.510;2022-09-09T15:54:39;8.07;;;1.30;;
26277;SDS011;14000;52.056;8.510;2022-09-09T15:57:05;11.17;;;1.97;;
26277;SDS011;14000;52.056;8.510;2022-09-09T15:59:33;8.17;;;1.50;;
26277;SDS011;14000;52.056;8.510;2022-09-09T16:01:59;7.83;;;1.40;;
26277;SDS011;14000;52.056;8.510;2022-09-09T16:04:25;11.43;;;2.10;;
26277;SDS011;14000;52.056;8.510;2022-09-09T16:06:52;14.97;;;4.20;;
26277;SDS011;14000;52.056;8.510;2022-09-09T16:09:19;14.33;;;4.10;;
26277;SDS011;14000;52.056;8.510;2022-09-09T16:11:45;7.60;;;1.57;;
26277;SDS011;14000;52.056;8.510;2022-09-09T16:14:12;6.87;;;1.33;;
26277;SDS011;14000;52.056;8.510;2022-09-09T16:16:40;6.27;;;1.30;;
26277;SDS011;14000;52.056;8.510;2022-09-09T16:19:07;8.60;;;1.33;;
26277;SDS011;14000;52.056;8.510;2022-09-09T16:21:36;9.23;;;1.50;;
26277;SDS011;14000;52.056;8.510;2022-09-09T16:24:11;6.97;;;1.30;;
26277;SDS011;14000;52.056;8.510;2022-09-09T16:26:41;5.47;;;1.20;;
26277;SDS011;14000;52.056;8.510;2022-09-09T16:29:11;5.90;;;1.20;;
26277;SDS011;14000;52.056;8.510;2022-09-09T16:31:39;6.57;;;1.27;;
26277;SDS011;14000;52.056;8.510;2022-09-09T16:34:05;9.67;;;1.40;;
26277;SDS011;14000;52.056;8.510;2022-09-09T16:36:32;5.70;;;1.10;;
26277;SDS011;14000;52.056;8.510;2022-09-09T16:39:00;5.50;;;1.00;;
26277;SDS011;14000;52.056;8.510;2022-09-09T16:41:32;7.33;;;1.23;;
26277;SDS011;14000;52.056;8.510;2022-09-09T16:43:59;4.67;;;1.10;;
26277;SDS011;14000;52.056;8.510;2022-09-09T16:46:27;8.43;;;1.53;;
26277;SDS011;14000;52.056;8.510;2022-09-09T16:48:55;5.40;;;1.03;;
26277;SDS011;14000;52.056;8.510;2022-09-09T16:51:25;7.50;;;1.17;;
26277;SDS011;14000;52.056;8.510;2022-09-09T16:53:54;8.30;;;1.43;;
26277;SDS011;14000;52.056;8.510;2022-09-09T16:56:23;4.47;;;1.10;;
26277;SDS011;14000;52.056;8.510;2022-09-09T16:58:52;7.83;;;1.27;;
26277;SDS011;14000;52.056;8.510;2022-09-09T17:01:20;6.13;;;1.20;;
26277;SDS011;14000;52.056;8.510;2022-09-09T17:03:58;6.93;;;1.30;;
26277;SDS011;14000;52.056;8.510;2022-09-09T17:06:34;7.87;;;1.50;;
26277;SDS011;14000;52.056;8.510;2022-09-09T17:09:03;6.90;;;1.40;;
26277;SDS011;14000;52.056;8.510;2022-09-09T17:11:31;7.27;;;1.47;;
26277;SDS011;14000;52.056;8.510;2022-09-09T17:13:57;8.10;;;1.37;;
26277;SDS011;14000;52.056;8.510;2022-09-09T17:16:26;7.83;;;1.40;;
26277;SDS011;14000;52.056;8.510;2022-09-09T17:18:54;7.27;;;1.30;;
26277;SDS011;14000;52.056;8.510;2022-09-09T17:21:21;5.10;;;1.20;;
26277;SDS011;14000;52.056;8.510;2022-09-09T17:23:50;5.53;;;0.93;;